createdAt,value
2022-11-23T00:01:45.228Z,8.11
2022-11-23T00:04:29.427Z,8.15
2022-11-23T00:07:15.326Z,8.41
2022-11-23T00:09:47.909Z,8.25
2022-11-23T00:12:35.970Z,7.88
2022-11-23T00:15:09.911Z,8.10
2022-11-23T00:17:52.828Z,8.53
2022-11-23T00:20:33.033Z,8.55
2022-11-23T00:26:04.832Z,8.54
2022-11-23T00:28:47.019Z,8.34
2022-11-23T00:31:27.412Z,8.34
2022-11-23T00:33:59.604Z,7.57
2022-11-23T00:36:59.554Z,8.59
2022-11-23T00:39:34.569Z,8.62
2022-11-23T00:42:11.159Z,8.59
2022-11-23T00:44:48.666Z,7.76
2022-11-23T00:47:29.436Z,8.48
2022-11-23T00:50:21.762Z,8.60
2022-11-23T00:56:08.693Z,8.39
2022-11-23T00:56:20.857Z,8.33
2022-11-23T00:59:05.209Z,8.62
2022-11-23T01:01:37.492Z,8.12
2022-11-23T01:04:17.694Z,8.29
2022-11-23T01:07:02.726Z,7.52
2022-11-23T01:10:05.200Z,7.78
2022-11-23T01:12:49.360Z,8.37
2022-11-23T01:15:48.467Z,8.59
2022-11-23T01:18:24.323Z,8.60
2022-11-23T01:21:15.797Z,8.67
2022-11-23T01:23:49.605Z,8.49
2022-11-23T01:26:45.542Z,7.78
2022-11-23T01:29:28.087Z,8.54
2022-11-23T01:32:08.869Z,8.19
2022-11-23T01:34:47.972Z,8.70
2022-11-23T01:37:28.713Z,8.73
2022-11-23T01:39:55.447Z,8.73
2022-11-23T01:42:39.932Z,8.75
2022-11-23T01:45:38.330Z,8.76
2022-11-23T01:48:11.437Z,8.66
2022-11-23T01:50:40.730Z,8.74
2022-11-23T01:53:10.728Z,8.69
2022-11-23T01:55:39.110Z,8.75
2022-11-23T01:58:22.474Z,8.76
2022-11-23T02:00:57.409Z,8.76
2022-11-23T02:03:43.808Z,7.75
2022-11-23T02:06:30.312Z,7.80
2022-11-23T02:09:28.549Z,8.20
2022-11-23T02:12:30.350Z,8.14
2022-11-23T02:15:41.281Z,8.37
2022-11-23T02:18:29.120Z,8.79
2022-11-23T02:24:04.215Z,8.86
2022-11-23T02:26:43.383Z,7.91
2022-11-23T02:32:09.922Z,8.66
2022-11-23T02:35:16.332Z,7.87
2022-11-23T02:38:34.188Z,8.83
2022-11-23T02:41:27.569Z,8.84
2022-11-23T02:44:50.931Z,8.74
2022-11-23T02:56:31.198Z,8.57
2022-11-23T02:59:14.439Z,8.55
2022-11-23T03:02:36.868Z,7.71
2022-11-23T03:09:12.151Z,7.75
2022-11-23T03:17:47.008Z,8.63
2022-11-23T03:20:29.183Z,7.82
2022-11-23T03:38:05.388Z,8.72
2022-11-23T03:50:23.639Z,8.48
2022-11-23T03:56:12.855Z,8.42
2022-11-23T03:59:05.150Z,7.80
2022-11-23T04:04:50.988Z,7.65
2022-11-23T04:07:34.278Z,8.09
2022-11-23T04:13:11.777Z,7.87
2022-11-23T04:15:53.864Z,8.63
2022-11-23T04:18:51.220Z,7.82
2022-11-23T04:22:00.268Z,8.63
2022-11-23T04:24:37.879Z,8.64
2022-11-23T04:39:48.803Z,8.37
2022-11-23T04:42:41.345Z,8.60
2022-11-23T04:46:29.174Z,7.96
2022-11-23T05:01:45.464Z,7.61
2022-11-23T05:07:41.774Z,8.53
2022-11-23T05:10:40.276Z,8.53
2022-11-23T05:20:04.678Z,8.52
2022-11-23T05:26:30.273Z,7.53
2022-11-23T05:29:10.454Z,8.45
2022-11-23T05:42:16.208Z,8.51
2022-11-23T05:45:16.053Z,8.53
2022-11-23T05:47:49.985Z,7.65
2022-11-23T05:57:27.013Z,8.58
2022-11-23T06:00:32.688Z,8.12
2022-11-23T06:03:13.820Z,8.61
2022-11-23T06:05:55.193Z,8.50
2022-11-23T06:08:30.007Z,8.49
2022-11-23T06:10:56.832Z,8.54
2022-11-23T06:13:26.448Z,8.58
2022-11-23T06:16:20.384Z,8.57
2022-11-23T06:19:20.178Z,8.56
2022-11-23T06:22:22.707Z,7.52
2022-11-23T06:24:54.506Z,8.15
2022-11-23T06:27:55.568Z,7.56
2022-11-23T06:36:29.800Z,8.23
2022-11-23T06:42:38.326Z,8.45
2022-11-23T06:45:15.555Z,7.90
2022-11-23T06:48:09.230Z,8.20
2022-11-23T06:54:44.312Z,7.81
2022-11-23T06:57:25.647Z,7.34
2022-11-23T07:03:12.140Z,7.46
2022-11-23T07:12:55.317Z,8.32
2022-11-23T07:15:52.077Z,7.31
2022-11-23T07:22:12.243Z,7.55
2022-11-23T07:25:15.206Z,8.23
2022-11-23T07:33:59.889Z,8.13
2022-11-23T07:36:35.268Z,7.38
2022-11-23T07:40:00.692Z,7.85
2022-11-23T07:43:11.035Z,7.28
2022-11-23T07:45:49.638Z,8.31
2022-11-23T07:54:23.678Z,8.32
2022-11-23T07:58:14.155Z,7.45
2022-11-23T08:03:42.883Z,7.81
2022-11-23T08:06:30.494Z,8.42
2022-11-23T08:09:26.711Z,8.41
2022-11-23T08:12:00.299Z,8.45
2022-11-23T08:24:37.906Z,8.29
2022-11-23T08:27:43.410Z,8.51
2022-11-23T08:39:57.911Z,7.59
2022-11-23T08:42:57.380Z,7.80
2022-11-23T08:49:34.798Z,8.76
2022-11-23T08:52:36.654Z,7.64
2022-11-23T08:55:22.852Z,8.50
2022-11-23T08:58:15.621Z,8.86
2022-11-23T09:00:56.534Z,8.12
2022-11-23T09:06:43.805Z,8.99
2022-11-23T09:09:17.285Z,8.62
2022-11-23T09:12:25.497Z,8.07
2022-11-23T09:15:25.263Z,8.93
2022-11-23T09:18:41.511Z,8.10
2022-11-23T09:21:31.794Z,8.69
2022-11-23T09:24:29.309Z,8.72
2022-11-23T09:27:08.610Z,8.46
2022-11-23T09:30:13.819Z,9.01
2022-11-23T09:32:57.866Z,8.47
2022-11-23T09:35:48.541Z,8.90
2022-11-23T09:38:51.578Z,8.32
2022-11-23T09:45:16.703Z,8.27
2022-11-23T09:57:54.923Z,8.27
2022-11-23T10:00:55.124Z,9.24
2022-11-23T10:03:49.297Z,9.21
2022-11-23T10:26:06.905Z,9.00
2022-11-23T10:32:12.571Z,8.77
2022-11-23T10:35:09.389Z,8.62
2022-11-23T10:38:21.325Z,8.40
2022-11-23T10:41:41.722Z,8.67
2022-11-23T10:45:04.692Z,8.87
2022-11-23T10:47:52.922Z,8.65
2022-11-23T10:51:31.688Z,9.08
2022-11-23T10:54:41.130Z,8.98
2022-11-23T11:05:12.646Z,9.95
2022-11-23T11:08:00.382Z,9.93
2022-11-23T11:11:01.550Z,9.05
2022-11-23T11:13:50.974Z,9.50
2022-11-23T11:16:44.054Z,9.16
2022-11-23T11:20:04.414Z,9.87
2022-11-23T11:23:04.215Z,9.37
2022-11-23T11:25:54.660Z,10.26
2022-11-23T11:28:49.706Z,9.71
2022-11-23T11:32:01.818Z,9.37
2022-11-23T11:42:13.827Z,9.82
2022-11-23T11:45:16.208Z,10.00
2022-11-23T11:48:10.337Z,9.52
2022-11-23T11:51:17.805Z,9.95
2022-11-23T11:57:05.718Z,11.91
2022-11-23T12:03:04.945Z,14.12
2022-11-23T12:09:37.439Z,15.43
2022-11-23T12:12:28.200Z,15.70
2022-11-23T13:02:49.146Z,13.77
2022-11-23T14:10:08.381Z,10.50
2022-11-23T14:27:46.664Z,9.12
2022-11-23T14:43:48.456Z,8.81
2022-11-23T15:04:39.471Z,8.42
2022-11-23T15:12:14.378Z,8.72
2022-11-23T16:01:59.990Z,7.83
2022-11-23T16:15:32.618Z,9.16
2022-11-23T16:21:25.461Z,8.12
2022-11-23T16:30:52.289Z,8.03
2022-11-23T16:33:32.624Z,8.77
2022-11-23T16:36:06.192Z,9.13
2022-11-23T16:41:37.738Z,8.43
2022-11-23T16:44:18.671Z,7.94
2022-11-23T16:46:49.114Z,8.52
2022-11-23T16:49:33.051Z,8.78
2022-11-23T16:52:40.974Z,8.67
2022-11-23T16:55:19.745Z,8.23
2022-11-23T16:58:00.257Z,8.39
2022-11-23T17:00:35.529Z,7.91
2022-11-23T17:03:20.988Z,7.83
2022-11-23T17:05:52.070Z,9.02
2022-11-23T17:08:23.848Z,8.87
2022-11-23T17:10:59.612Z,8.78
2022-11-23T17:13:39.843Z,8.88
2022-11-23T17:16:27.593Z,7.71
2022-11-23T17:19:02.139Z,8.68
2022-11-23T17:21:36.168Z,8.46
2022-11-23T17:24:09.821Z,8.39
2022-11-23T17:30:13.910Z,8.42
2022-11-23T17:35:46.242Z,8.53
2022-11-23T17:38:32.906Z,8.52
2022-11-23T17:41:08.653Z,8.79
2022-11-23T17:43:54.910Z,8.83
2022-11-23T17:46:30.637Z,8.63
2022-11-23T17:49:12.204Z,8.86
2022-11-23T17:51:51.467Z,8.69
2022-11-23T17:54:49.193Z,8.50
2022-11-23T17:57:33.932Z,8.19
2022-11-23T18:00:19.506Z,7.58
2022-11-23T18:06:13.821Z,7.92
2022-11-23T18:08:45.383Z,8.06
2022-11-23T18:14:30.691Z,7.73
2022-11-23T18:17:30.804Z,7.60
2022-11-23T18:20:52.967Z,8.52
2022-11-23T18:23:23.549Z,8.21
2022-11-23T18:29:22.942Z,8.51
2022-11-23T18:32:17.546Z,8.18
2022-11-23T18:34:50.513Z,8.28
2022-11-23T18:40:39.740Z,7.95
2022-11-23T18:43:09.050Z,8.11
2022-11-23T18:45:45.201Z,7.73
2022-11-23T18:48:13.903Z,8.42
2022-11-23T18:50:48.329Z,8.20
2022-11-23T18:53:30.506Z,8.54
2022-11-23T18:56:24.256Z,7.83
2022-11-23T18:58:53.140Z,8.48
2022-11-23T19:01:41.018Z,8.86
2022-11-23T19:04:16.653Z,8.43
2022-11-23T19:06:46.801Z,8.97
2022-11-23T19:09:21.907Z,8.93
2022-11-23T19:11:49.087Z,8.55
2022-11-23T19:14:16.227Z,8.67
2022-11-23T19:16:56.938Z,8.30
2022-11-23T19:19:28.427Z,7.86
2022-11-23T19:22:02.208Z,8.56
2022-11-23T19:24:47.394Z,8.58
2022-11-23T19:27:14.452Z,8.96
2022-11-23T19:29:51.465Z,8.07
2022-11-23T19:32:22.223Z,8.06
2022-11-23T19:34:51.957Z,8.90
2022-11-23T19:37:19.104Z,8.12
2022-11-23T19:39:49.122Z,9.01
2022-11-23T19:42:18.290Z,8.55
2022-11-23T19:44:47.209Z,8.98
2022-11-23T19:47:19.964Z,9.00
2022-11-23T19:49:50.858Z,8.14
2022-11-23T19:52:47.982Z,7.94
2022-11-23T19:55:12.970Z,8.92
2022-11-23T19:57:40.903Z,8.20
2022-11-23T20:00:13.371Z,8.61
2022-11-23T20:02:40.414Z,8.41
2022-11-23T20:05:09.515Z,9.01
2022-11-23T20:07:38.817Z,8.03
2022-11-23T20:10:09.023Z,9.01
2022-11-23T20:12:35.802Z,9.05
2022-11-23T20:15:04.052Z,8.16
2022-11-23T20:17:33.254Z,8.03
2022-11-23T20:20:08.504Z,8.69
2022-11-23T20:22:37.199Z,9.13
2022-11-23T20:25:04.298Z,9.17
2022-11-23T20:27:31.107Z,9.04
2022-11-23T20:30:07.120Z,9.14
2022-11-23T20:32:33.863Z,8.07
2022-11-23T20:35:00.682Z,9.12
2022-11-23T20:37:36.872Z,8.22
2022-11-23T20:40:04.082Z,8.57
2022-11-23T20:42:31.173Z,8.05
2022-11-23T20:44:58.447Z,8.91
2022-11-23T20:47:27.769Z,8.11
2022-11-23T20:49:54.750Z,8.08
2022-11-23T20:52:21.599Z,8.86
2022-11-23T20:54:51.475Z,7.95
2022-11-23T20:57:18.912Z,8.70
2022-11-23T20:59:46.008Z,8.69
2022-11-23T21:02:21.266Z,8.76
2022-11-23T21:04:56.064Z,8.09
2022-11-23T21:07:25.375Z,8.37
2022-11-23T21:09:54.526Z,8.71
2022-11-23T21:12:24.468Z,8.48
2022-11-23T21:14:51.589Z,7.95
2022-11-23T21:17:18.433Z,8.55
2022-11-23T21:19:45.282Z,8.61
2022-11-23T21:22:13.958Z,8.40
2022-11-23T21:24:41.598Z,8.33
2022-11-23T21:27:12.335Z,7.89
2022-11-23T21:29:39.080Z,8.20
2022-11-23T21:32:06.181Z,7.66
2022-11-23T21:34:33.284Z,7.51
2022-11-23T21:37:00.378Z,7.48
2022-11-23T21:39:27.523Z,8.29
2022-11-23T21:41:56.143Z,7.92
2022-11-23T21:44:24.334Z,8.26
2022-11-23T21:46:51.253Z,8.30
2022-11-23T21:49:18.101Z,7.26
2022-11-23T21:51:48.442Z,7.56
2022-11-23T21:54:15.352Z,8.22
2022-11-23T21:56:42.657Z,8.26
2022-11-23T21:59:09.564Z,7.55
2022-11-23T22:01:38.399Z,7.06
2022-11-23T22:04:32.228Z,8.16
2022-11-23T22:07:08.543Z,7.70
2022-11-23T22:09:39.894Z,7.75
2022-11-23T22:12:09.671Z,7.42
2022-11-23T22:14:40.013Z,7.87
2022-11-23T22:17:11.081Z,7.62
2022-11-23T22:19:41.659Z,7.14
2022-11-23T22:22:08.357Z,8.02
2022-11-23T22:24:38.077Z,7.64
2022-11-23T22:27:08.050Z,7.75
2022-11-23T22:29:35.175Z,7.92
2022-11-23T22:32:05.026Z,7.68
2022-11-23T22:34:33.492Z,7.39
2022-11-23T22:37:10.062Z,8.03
2022-11-23T22:39:37.742Z,6.92
2022-11-23T22:42:04.649Z,8.05
2022-11-23T22:44:31.600Z,7.26
2022-11-23T22:47:11.876Z,7.60
2022-11-23T22:49:40.294Z,7.04
2022-11-23T22:52:09.313Z,7.79
2022-11-23T22:54:38.763Z,7.92
2022-11-23T22:57:10.795Z,7.73
2022-11-23T22:59:38.609Z,7.43
2022-11-23T23:02:05.509Z,8.21
2022-11-23T23:04:48.593Z,7.54
2022-11-23T23:07:18.852Z,7.89
2022-11-23T23:09:48.064Z,7.75
2022-11-23T23:12:16.860Z,8.20
2022-11-23T23:14:44.643Z,7.54
2022-11-23T23:17:13.938Z,7.91
2022-11-23T23:19:41.078Z,7.62
2022-11-23T23:22:09.318Z,8.00
2022-11-23T23:24:36.395Z,6.94
2022-11-23T23:27:03.309Z,7.07
2022-11-23T23:29:30.097Z,7.99
2022-11-23T23:32:01.055Z,7.64
2022-11-23T23:34:27.866Z,7.36
2022-11-23T23:36:54.636Z,6.90
2022-11-23T23:39:23.053Z,7.74
2022-11-23T23:41:49.875Z,7.00
2022-11-23T23:44:25.521Z,7.79
2022-11-23T23:46:52.370Z,7.47
2022-11-23T23:49:23.280Z,7.26
2022-11-23T23:51:54.787Z,7.90
2022-11-23T23:54:22.973Z,7.78
2022-11-23T23:56:50.856Z,7.86
2022-11-23T23:59:20.247Z,7.52
